sensor_id;sensor_type;location;lat;lon;timestamp;P1;durP1;ratioP1;P2;durP2;ratioP2
51852;SDS011;37894;53.172;6.598;2023-05-10T00:01:47;18.58;;;11.65;;
51852;SDS011;37894;53.172;6.598;2023-05-10T00:04:13;19.23;;;12.20;;
51852;SDS011;37894;53.172;6.598;2023-05-10T00:06:39;20.15;;;12.95;;
51852;SDS011;37894;53.172;6.598;2023-05-10T00:09:05;21.63;;;13.27;;
51852;SDS011;37894;53.172;6.598;2023-05-10T00:11:31;23.98;;;14.00;;
51852;SDS011;37894;53.172;6.598;2023-05-10T00:13:56;18.77;;;12.63;;
51852;SDS011;37894;53.172;6.598;2023-05-10T00:16:22;19.40;;;13.05;;
51852;SDS011;37894;53.172;6.598;2023-05-10T00:18:48;20.60;;;12.43;;
51852;SDS011;37894;53.172;6.598;2023-05-10T00:21:14;21.38;;;12.30;;
51852;SDS011;37894;53.172;6.598;2023-05-10T00:23:39;19.85;;;12.38;;
51852;SDS011;37894;53.172;6.598;2023-05-10T00:26:05;23.15;;;13.88;;
51852;SDS011;37894;53.172;6.598;2023-05-10T00:28:31;23.75;;;13.15;;
51852;SDS011;37894;53.172;6.598;2023-05-10T00:30:57;21.65;;;12.88;;
51852;SDS011;37894;53.172;6.598;2023-05-10T00:33:22;27.55;;;14.73;;
51852;SDS011;37894;53.172;6.598;2023-05-10T00:35:48;20.08;;;13.13;;
51852;SDS011;37894;53.172;6.598;2023-05-10T00:38:14;24.17;;;14.95;;
51852;SDS011;37894;53.172;6.598;2023-05-10T00:40:39;23.67;;;13.00;;
51852;SDS011;37894;53.172;6.598;2023-05-10T00:43:05;23.75;;;13.63;;
51852;SDS011;37894;53.172;6.598;2023-05-10T00:45:32;29.63;;;14.68;;
51852;SDS011;37894;53.172;6.598;2023-05-10T00:47:59;19.05;;;12.82;;
51852;SDS011;37894;53.172;6.598;2023-05-10T00:50:27;23.35;;;13.88;;
51852;SDS011;37894;53.172;6.598;2023-05-10T00:52:53;21.17;;;13.27;;
51852;SDS011;37894;53.172;6.598;2023-05-10T00:55:20;20.33;;;13.35;;
51852;SDS011;37894;53.172;6.598;2023-05-10T00:57:46;21.13;;;12.55;;
51852;SDS011;37894;53.172;6.598;2023-05-10T01:00:12;22.50;;;13.25;;
51852;SDS011;37894;53.172;6.598;2023-05-10T01:02:44;19.23;;;12.10;;
51852;SDS011;37894;53.172;6.598;2023-05-10T01:05:11;17.88;;;11.38;;
51852;SDS011;37894;53.172;6.598;2023-05-10T01:07:38;27.17;;;13.05;;
51852;SDS011;37894;53.172;6.598;2023-05-10T01:10:05;18.33;;;12.77;;
51852;SDS011;37894;53.172;6.598;2023-05-10T01:12:31;16.23;;;10.73;;
51852;SDS011;37894;53.172;6.598;2023-05-10T01:15:00;18.77;;;11.75;;
51852;SDS011;37894;53.172;6.598;2023-05-10T01:17:26;18.40;;;11.00;;
51852;SDS011;37894;53.172;6.598;2023-05-10T01:19:52;14.98;;;9.93;;
51852;SDS011;37894;53.172;6.598;2023-05-10T01:44:09;16.52;;;10.05;;
51852;SDS011;37894;53.172;6.598;2023-05-10T01:46:41;16.05;;;10.48;;
51852;SDS011;37894;53.172;6.598;2023-05-10T01:49:08;17.90;;;10.57;;
51852;SDS011;37894;53.172;6.598;2023-05-10T01:51:45;21.50;;;11.63;;
51852;SDS011;37894;53.172;6.598;2023-05-10T01:54:17;18.52;;;11.18;;
51852;SDS011;37894;53.172;6.598;2023-05-10T01:56:45;20.30;;;11.32;;
51852;SDS011;37894;53.172;6.598;2023-05-10T01:59:16;23.65;;;12.30;;
51852;SDS011;37894;53.172;6.598;2023-05-10T02:01:44;27.02;;;13.48;;
51852;SDS011;37894;53.172;6.598;2023-05-10T02:04:11;18.92;;;11.48;;
51852;SDS011;37894;53.172;6.598;2023-05-10T02:06:42;19.40;;;11.52;;
51852;SDS011;37894;53.172;6.598;2023-05-10T02:09:09;20.77;;;11.35;;
51852;SDS011;37894;53.172;6.598;2023-05-10T02:11:39;19.55;;;11.13;;
51852;SDS011;37894;53.172;6.598;2023-05-10T02:14:07;16.38;;;9.65;;
51852;SDS011;37894;53.172;6.598;2023-05-10T02:16:36;24.92;;;11.23;;
51852;SDS011;37894;53.172;6.598;2023-05-10T02:19:04;21.33;;;12.65;;
51852;SDS011;37894;53.172;6.598;2023-05-10T02:21:31;21.38;;;12.85;;
51852;SDS011;37894;53.172;6.598;2023-05-10T02:23:58;21.73;;;12.30;;
51852;SDS011;37894;53.172;6.598;2023-05-10T02:26:25;26.90;;;12.77;;
51852;SDS011;37894;53.172;6.598;2023-05-10T02:28:52;21.70;;;12.73;;
51852;SDS011;37894;53.172;6.598;2023-05-10T02:31:20;22.20;;;12.00;;
51852;SDS011;37894;53.172;6.598;2023-05-10T02:33:46;24.65;;;12.80;;
51852;SDS011;37894;53.172;6.598;2023-05-10T02:36:14;16.73;;;11.18;;
51852;SDS011;37894;53.172;6.598;2023-05-10T02:38:41;22.55;;;11.60;;
51852;SDS011;37894;53.172;6.598;2023-05-10T02:41:08;20.88;;;11.32;;
51852;SDS011;37894;53.172;6.598;2023-05-10T02:43:35;23.67;;;13.05;;
51852;SDS011;37894;53.172;6.598;2023-05-10T02:46:04;23.25;;;12.45;;
51852;SDS011;37894;53.172;6.598;2023-05-10T02:48:30;19.98;;;11.30;;
51852;SDS011;37894;53.172;6.598;2023-05-10T02:50:57;31.13;;;14.23;;
51852;SDS011;37894;53.172;6.598;2023-05-10T02:55:57;22.40;;;12.93;;
51852;SDS011;37894;53.172;6.598;2023-05-10T02:58:25;23.48;;;12.13;;
51852;SDS011;37894;53.172;6.598;2023-05-10T03:00:51;21.83;;;12.30;;
51852;SDS011;37894;53.172;6.598;2023-05-10T03:03:17;21.17;;;11.77;;
51852;SDS011;37894;53.172;6.598;2023-05-10T03:05:44;20.35;;;12.15;;
51852;SDS011;37894;53.172;6.598;2023-05-10T03:08:10;21.25;;;12.25;;
51852;SDS011;37894;53.172;6.598;2023-05-10T03:10:38;21.70;;;12.32;;
51852;SDS011;37894;53.172;6.598;2023-05-10T03:13:16;24.73;;;12.73;;
51852;SDS011;37894;53.172;6.598;2023-05-10T03:16:12;31.88;;;12.13;;
51852;SDS011;37894;53.172;6.598;2023-05-10T03:21:16;27.73;;;13.02;;
51852;SDS011;37894;53.172;6.598;2023-05-10T03:23:48;26.98;;;13.73;;
51852;SDS011;37894;53.172;6.598;2023-05-10T03:26:20;34.63;;;15.43;;
51852;SDS011;37894;53.172;6.598;2023-05-10T03:28:52;26.77;;;13.88;;
51852;SDS011;37894;53.172;6.598;2023-05-10T03:31:19;26.02;;;14.50;;
51852;SDS011;37894;53.172;6.598;2023-05-10T03:33:51;26.73;;;14.75;;
51852;SDS011;37894;53.172;6.598;2023-05-10T03:36:18;24.15;;;12.38;;
51852;SDS011;37894;53.172;6.598;2023-05-10T03:38:44;26.65;;;14.02;;
51852;SDS011;37894;53.172;6.598;2023-05-10T03:41:10;25.75;;;13.30;;
51852;SDS011;37894;53.172;6.598;2023-05-10T03:43:36;27.58;;;13.95;;
51852;SDS011;37894;53.172;6.598;2023-05-10T03:46:05;29.88;;;15.75;;
51852;SDS011;37894;53.172;6.598;2023-05-10T03:48:34;32.47;;;14.65;;
51852;SDS011;37894;53.172;6.598;2023-05-10T03:50:59;32.15;;;16.70;;
51852;SDS011;37894;53.172;6.598;2023-05-10T03:53:25;37.45;;;16.73;;
51852;SDS011;37894;53.172;6.598;2023-05-10T03:55:51;32.63;;;16.20;;
51852;SDS011;37894;53.172;6.598;2023-05-10T03:58:17;40.67;;;16.27;;
51852;SDS011;37894;53.172;6.598;2023-05-10T04:00:43;35.33;;;16.13;;
51852;SDS011;37894;53.172;6.598;2023-05-10T04:03:13;41.22;;;16.85;;
51852;SDS011;37894;53.172;6.598;2023-05-10T04:05:39;34.85;;;15.13;;
51852;SDS011;37894;53.172;6.598;2023-05-10T04:08:05;34.75;;;16.45;;
51852;SDS011;37894;53.172;6.598;2023-05-10T04:10:31;35.67;;;16.15;;
51852;SDS011;37894;53.172;6.598;2023-05-10T04:12:57;42.20;;;17.85;;
51852;SDS011;37894;53.172;6.598;2023-05-10T04:15:23;43.53;;;16.83;;
51852;SDS011;37894;53.172;6.598;2023-05-10T04:17:49;40.85;;;15.90;;
51852;SDS011;37894;53.172;6.598;2023-05-10T04:20:15;37.83;;;16.27;;
51852;SDS011;37894;53.172;6.598;2023-05-10T04:22:41;33.55;;;14.68;;
51852;SDS011;37894;53.172;6.598;2023-05-10T04:25:07;31.95;;;14.15;;
51852;SDS011;37894;53.172;6.598;2023-05-10T04:27:33;29.15;;;14.45;;
51852;SDS011;37894;53.172;6.598;2023-05-10T04:29:59;33.72;;;14.40;;
51852;SDS011;37894;53.172;6.598;2023-05-10T04:32:25;33.70;;;14.43;;
51852;SDS011;37894;53.172;6.598;2023-05-10T04:34:50;31.80;;;15.15;;
51852;SDS011;37894;53.172;6.598;2023-05-10T04:37:16;37.78;;;15.20;;
51852;SDS011;37894;53.172;6.598;2023-05-10T04:39:42;28.98;;;14.30;;
51852;SDS011;37894;53.172;6.598;2023-05-10T04:42:08;23.20;;;12.73;;
51852;SDS011;37894;53.172;6.598;2023-05-10T04:44:34;25.45;;;11.90;;
51852;SDS011;37894;53.172;6.598;2023-05-10T04:47:01;19.98;;;10.93;;
51852;SDS011;37894;53.172;6.598;2023-05-10T04:49:28;21.80;;;10.43;;
51852;SDS011;37894;53.172;6.598;2023-05-10T04:51:54;18.65;;;8.88;;
51852;SDS011;37894;53.172;6.598;2023-05-10T04:54:20;16.13;;;8.65;;
51852;SDS011;37894;53.172;6.598;2023-05-10T04:56:46;14.50;;;7.88;;
51852;SDS011;37894;53.172;6.598;2023-05-10T04:59:12;14.68;;;7.03;;
51852;SDS011;37894;53.172;6.598;2023-05-10T05:01:37;11.48;;;6.07;;
51852;SDS011;37894;53.172;6.598;2023-05-10T05:04:04;11.50;;;6.32;;
51852;SDS011;37894;53.172;6.598;2023-05-10T05:06:30;10.07;;;5.70;;
51852;SDS011;37894;53.172;6.598;2023-05-10T05:08:55;9.30;;;5.30;;
51852;SDS011;37894;53.172;6.598;2023-05-10T05:11:21;9.25;;;5.03;;
51852;SDS011;37894;53.172;6.598;2023-05-10T05:13:47;8.20;;;5.28;;
51852;SDS011;37894;53.172;6.598;2023-05-10T05:16:13;8.95;;;5.95;;
51852;SDS011;37894;53.172;6.598;2023-05-10T05:18:38;11.05;;;5.85;;
51852;SDS011;37894;53.172;6.598;2023-05-10T05:21:17;11.05;;;5.70;;
51852;SDS011;37894;53.172;6.598;2023-05-10T05:23:43;13.00;;;6.53;;
51852;SDS011;37894;53.172;6.598;2023-05-10T05:26:10;9.35;;;5.68;;
51852;SDS011;37894;53.172;6.598;2023-05-10T05:28:35;10.98;;;5.70;;
51852;SDS011;37894;53.172;6.598;2023-05-10T05:31:05;9.30;;;5.57;;
51852;SDS011;37894;53.172;6.598;2023-05-10T05:33:34;9.52;;;5.60;;
51852;SDS011;37894;53.172;6.598;2023-05-10T05:36:01;9.25;;;6.30;;
51852;SDS011;37894;53.172;6.598;2023-05-10T05:38:27;10.63;;;5.32;;
51852;SDS011;37894;53.172;6.598;2023-05-10T05:40:53;12.10;;;6.28;;
51852;SDS011;37894;53.172;6.598;2023-05-10T05:43:18;12.85;;;6.88;;
51852;SDS011;37894;53.172;6.598;2023-05-10T05:45:44;10.95;;;6.32;;
51852;SDS011;37894;53.172;6.598;2023-05-10T05:48:10;10.77;;;6.38;;
51852;SDS011;37894;53.172;6.598;2023-05-10T05:50:36;10.00;;;6.18;;
51852;SDS011;37894;53.172;6.598;2023-05-10T05:53:01;11.13;;;6.35;;
51852;SDS011;37894;53.172;6.598;2023-05-10T05:55:27;11.30;;;6.45;;
51852;SDS011;37894;53.172;6.598;2023-05-10T05:57:54;14.45;;;6.50;;
51852;SDS011;37894;53.172;6.598;2023-05-10T06:00:20;12.35;;;6.43;;
51852;SDS011;37894;53.172;6.598;2023-05-10T06:02:46;10.55;;;6.55;;
51852;SDS011;37894;53.172;6.598;2023-05-10T06:05:12;9.98;;;5.93;;
51852;SDS011;37894;53.172;6.598;2023-05-10T06:07:39;11.00;;;6.57;;
51852;SDS011;37894;53.172;6.598;2023-05-10T06:10:07;12.57;;;6.20;;
51852;SDS011;37894;53.172;6.598;2023-05-10T06:12:33;14.40;;;7.03;;
51852;SDS011;37894;53.172;6.598;2023-05-10T06:14:59;11.05;;;5.97;;
51852;SDS011;37894;53.172;6.598;2023-05-10T06:17:25;12.50;;;6.50;;
51852;SDS011;37894;53.172;6.598;2023-05-10T06:19:51;11.13;;;5.80;;
51852;SDS011;37894;53.172;6.598;2023-05-10T06:22:17;13.90;;;6.10;;
51852;SDS011;37894;53.172;6.598;2023-05-10T06:24:42;7.43;;;3.45;;
51852;SDS011;37894;53.172;6.598;2023-05-10T06:27:08;5.55;;;3.47;;
51852;SDS011;37894;53.172;6.598;2023-05-10T06:29:34;6.38;;;3.40;;
51852;SDS011;37894;53.172;6.598;2023-05-10T06:32:00;6.93;;;3.38;;
51852;SDS011;37894;53.172;6.598;2023-05-10T06:34:26;6.13;;;3.38;;
51852;SDS011;37894;53.172;6.598;2023-05-10T06:36:52;8.35;;;3.60;;
51852;SDS011;37894;53.172;6.598;2023-05-10T06:39:17;7.85;;;4.13;;
51852;SDS011;37894;53.172;6.598;2023-05-10T06:41:43;8.73;;;4.88;;
51852;SDS011;37894;53.172;6.598;2023-05-10T06:44:09;9.05;;;5.20;;
51852;SDS011;37894;53.172;6.598;2023-05-10T06:46:34;10.75;;;6.40;;
51852;SDS011;37894;53.172;6.598;2023-05-10T06:49:00;13.82;;;6.53;;
51852;SDS011;37894;53.172;6.598;2023-05-10T06:51:26;15.13;;;8.27;;
51852;SDS011;37894;53.172;6.598;2023-05-10T06:53:52;14.93;;;7.85;;
51852;SDS011;37894;53.172;6.598;2023-05-10T06:56:17;24.90;;;9.65;;
51852;SDS011;37894;53.172;6.598;2023-05-10T06:58:46;21.70;;;11.57;;
51852;SDS011;37894;53.172;6.598;2023-05-10T07:01:12;20.98;;;10.52;;
51852;SDS011;37894;53.172;6.598;2023-05-10T07:03:38;22.98;;;11.07;;
51852;SDS011;37894;53.172;6.598;2023-05-10T07:06:04;16.42;;;9.00;;
51852;SDS011;37894;53.172;6.598;2023-05-10T07:08:32;14.93;;;7.10;;
51852;SDS011;37894;53.172;6.598;2023-05-10T07:11:01;9.05;;;5.30;;
51852;SDS011;37894;53.172;6.598;2023-05-10T07:13:28;9.68;;;4.90;;
51852;SDS011;37894;53.172;6.598;2023-05-10T07:15:55;9.18;;;4.90;;
51852;SDS011;37894;53.172;6.598;2023-05-10T07:18:21;14.10;;;5.00;;
51852;SDS011;37894;53.172;6.598;2023-05-10T07:20:46;10.23;;;4.38;;
51852;SDS011;37894;53.172;6.598;2023-05-10T07:23:12;7.82;;;4.22;;
51852;SDS011;37894;53.172;6.598;2023-05-10T07:25:38;6.47;;;4.30;;
51852;SDS011;37894;53.172;6.598;2023-05-10T07:28:03;9.68;;;4.20;;
51852;SDS011;37894;53.172;6.598;2023-05-10T07:30:29;7.28;;;4.22;;
51852;SDS011;37894;53.172;6.598;2023-05-10T07:32:55;5.57;;;3.60;;
51852;SDS011;37894;53.172;6.598;2023-05-10T07:35:21;28.75;;;4.97;;
51852;SDS011;37894;53.172;6.598;2023-05-10T07:37:47;8.45;;;3.90;;
51852;SDS011;37894;53.172;6.598;2023-05-10T07:40:13;6.85;;;3.80;;
51852;SDS011;37894;53.172;6.598;2023-05-10T07:42:38;8.77;;;4.50;;
51852;SDS011;37894;53.172;6.598;2023-05-10T07:45:04;9.23;;;5.07;;
51852;SDS011;37894;53.172;6.598;2023-05-10T07:47:30;8.15;;;5.18;;
51852;SDS011;37894;53.172;6.598;2023-05-10T07:49:56;9.35;;;4.78;;
51852;SDS011;37894;53.172;6.598;2023-05-10T07:52:22;6.63;;;5.05;;
51852;SDS011;37894;53.172;6.598;2023-05-10T07:54:48;7.05;;;5.60;;
51852;SDS011;37894;53.172;6.598;2023-05-10T07:57:13;7.85;;;4.43;;
51852;SDS011;37894;53.172;6.598;2023-05-10T07:59:42;6.18;;;4.05;;
51852;SDS011;37894;53.172;6.598;2023-05-10T08:02:09;5.00;;;3.90;;
51852;SDS011;37894;53.172;6.598;2023-05-10T08:04:34;5.57;;;4.18;;
51852;SDS011;37894;53.172;6.598;2023-05-10T08:07:00;5.05;;;4.20;;
51852;SDS011;37894;53.172;6.598;2023-05-10T08:09:26;6.00;;;4.25;;
51852;SDS011;37894;53.172;6.598;2023-05-10T08:11:51;6.32;;;4.53;;
51852;SDS011;37894;53.172;6.598;2023-05-10T08:14:17;6.97;;;4.45;;
51852;SDS011;37894;53.172;6.598;2023-05-10T08:16:43;6.65;;;4.00;;
51852;SDS011;37894;53.172;6.598;2023-05-10T08:19:08;7.63;;;4.72;;
51852;SDS011;37894;53.172;6.598;2023-05-10T08:21:34;9.10;;;5.10;;
51852;SDS011;37894;53.172;6.598;2023-05-10T08:24:01;7.57;;;4.43;;
51852;SDS011;37894;53.172;6.598;2023-05-10T08:26:27;7.80;;;4.60;;
51852;SDS011;37894;53.172;6.598;2023-05-10T08:28:53;8.77;;;4.38;;
51852;SDS011;37894;53.172;6.598;2023-05-10T08:31:18;7.88;;;4.32;;
51852;SDS011;37894;53.172;6.598;2023-05-10T08:33:44;5.53;;;3.80;;
51852;SDS011;37894;53.172;6.598;2023-05-10T08:36:10;6.88;;;4.15;;
51852;SDS011;37894;53.172;6.598;2023-05-10T08:38:39;6.97;;;4.97;;
51852;SDS011;37894;53.172;6.598;2023-05-10T08:41:05;6.68;;;4.32;;
51852;SDS011;37894;53.172;6.598;2023-05-10T08:43:31;6.28;;;4.25;;
51852;SDS011;37894;53.172;6.598;2023-05-10T08:45:59;6.65;;;4.10;;
51852;SDS011;37894;53.172;6.598;2023-05-10T08:48:28;6.63;;;4.72;;
51852;SDS011;37894;53.172;6.598;2023-05-10T08:50:54;7.70;;;5.20;;
51852;SDS011;37894;53.172;6.598;2023-05-10T08:53:24;5.80;;;4.07;;
51852;SDS011;37894;53.172;6.598;2023-05-10T08:55:51;7.68;;;4.85;;
51852;SDS011;37894;53.172;6.598;2023-05-10T08:58:17;7.50;;;4.65;;
51852;SDS011;37894;53.172;6.598;2023-05-10T09:00:45;9.70;;;6.07;;
51852;SDS011;37894;53.172;6.598;2023-05-10T09:03:13;8.85;;;5.97;;
51852;SDS011;37894;53.172;6.598;2023-05-10T09:05:40;8.40;;;5.82;;
51852;SDS011;37894;53.172;6.598;2023-05-10T09:08:06;6.75;;;4.85;;
51852;SDS011;37894;53.172;6.598;2023-05-10T09:10:33;7.10;;;5.00;;
51852;SDS011;37894;53.172;6.598;2023-05-10T09:13:00;8.23;;;5.47;;
51852;SDS011;37894;53.172;6.598;2023-05-10T09:15:26;12.43;;;6.30;;
51852;SDS011;37894;53.172;6.598;2023-05-10T09:17:52;9.48;;;6.22;;
51852;SDS011;37894;53.172;6.598;2023-05-10T09:20:19;9.35;;;5.80;;
51852;SDS011;37894;53.172;6.598;2023-05-10T09:22:45;11.38;;;5.93;;
51852;SDS011;37894;53.172;6.598;2023-05-10T09:25:12;9.18;;;5.82;;
51852;SDS011;37894;53.172;6.598;2023-05-10T09:27:39;9.25;;;5.68;;
51852;SDS011;37894;53.172;6.598;2023-05-10T09:30:06;8.10;;;4.80;;
51852;SDS011;37894;53.172;6.598;2023-05-10T09:32:43;7.70;;;5.35;;
51852;SDS011;37894;53.172;6.598;2023-05-10T09:35:10;7.25;;;5.22;;
51852;SDS011;37894;53.172;6.598;2023-05-10T09:37:42;9.15;;;5.95;;
51852;SDS011;37894;53.172;6.598;2023-05-10T09:40:16;8.68;;;5.85;;
51852;SDS011;37894;53.172;6.598;2023-05-10T09:42:50;10.80;;;6.18;;
51852;SDS011;37894;53.172;6.598;2023-05-10T09:45:27;7.28;;;4.72;;
51852;SDS011;37894;53.172;6.598;2023-05-10T09:47:54;9.35;;;5.82;;
51852;SDS011;37894;53.172;6.598;2023-05-10T09:50:20;7.72;;;5.25;;
51852;SDS011;37894;53.172;6.598;2023-05-10T09:52:47;7.30;;;4.82;;
51852;SDS011;37894;53.172;6.598;2023-05-10T09:55:16;11.43;;;6.05;;
51852;SDS011;37894;53.172;6.598;2023-05-10T09:57:42;10.02;;;5.80;;
51852;SDS011;37894;53.172;6.598;2023-05-10T10:00:08;8.00;;;5.85;;
51852;SDS011;37894;53.172;6.598;2023-05-10T10:02:35;7.47;;;5.57;;
51852;SDS011;37894;53.172;6.598;2023-05-10T10:05:01;10.05;;;6.00;;
51852;SDS011;37894;53.172;6.598;2023-05-10T10:07:28;8.77;;;6.35;;
51852;SDS011;37894;53.172;6.598;2023-05-10T10:09:54;8.75;;;5.90;;
51852;SDS011;37894;53.172;6.598;2023-05-10T10:12:20;8.93;;;6.18;;
51852;SDS011;37894;53.172;6.598;2023-05-10T10:14:49;12.02;;;6.07;;
51852;SDS011;37894;53.172;6.598;2023-05-10T10:17:16;8.15;;;5.57;;
51852;SDS011;37894;53.172;6.598;2023-05-10T10:19:42;9.18;;;6.15;;
51852;SDS011;37894;53.172;6.598;2023-05-10T10:22:10;11.57;;;6.40;;
51852;SDS011;37894;53.172;6.598;2023-05-10T10:24:37;10.68;;;6.95;;
51852;SDS011;37894;53.172;6.598;2023-05-10T10:27:15;9.15;;;6.03;;
51852;SDS011;37894;53.172;6.598;2023-05-10T10:30:08;9.55;;;5.55;;
51852;SDS011;37894;53.172;6.598;2023-05-10T10:35:38;9.63;;;6.80;;
51852;SDS011;37894;53.172;6.598;2023-05-10T10:38:05;9.20;;;6.53;;
51852;SDS011;37894;53.172;6.598;2023-05-10T10:40:33;10.98;;;6.03;;
51852;SDS011;37894;53.172;6.598;2023-05-10T10:43:21;8.10;;;5.03;;
51852;SDS011;37894;53.172;6.598;2023-05-10T10:48:39;11.20;;;5.85;;
51852;SDS011;37894;53.172;6.598;2023-05-10T10:51:05;8.40;;;5.50;;
51852;SDS011;37894;53.172;6.598;2023-05-10T10:53:32;8.05;;;5.25;;
51852;SDS011;37894;53.172;6.598;2023-05-10T10:56:07;7.72;;;5.18;;
51852;SDS011;37894;53.172;6.598;2023-05-10T10:58:35;6.93;;;4.82;;
51852;SDS011;37894;53.172;6.598;2023-05-10T11:01:09;7.57;;;5.65;;
51852;SDS011;37894;53.172;6.598;2023-05-10T11:03:39;7.40;;;5.20;;
51852;SDS011;37894;53.172;6.598;2023-05-10T11:06:06;8.57;;;5.35;;
51852;SDS011;37894;53.172;6.598;2023-05-10T11:08:34;10.02;;;5.38;;
51852;SDS011;37894;53.172;6.598;2023-05-10T11:11:07;9.00;;;6.60;;
51852;SDS011;37894;53.172;6.598;2023-05-10T11:13:40;7.35;;;5.75;;
51852;SDS011;37894;53.172;6.598;2023-05-10T11:16:22;10.48;;;6.15;;
51852;SDS011;37894;53.172;6.598;2023-05-10T11:18:52;7.90;;;6.03;;
51852;SDS011;37894;53.172;6.598;2023-05-10T11:21:23;9.68;;;5.65;;
51852;SDS011;37894;53.172;6.598;2023-05-10T11:23:50;9.43;;;5.63;;
51852;SDS011;37894;53.172;6.598;2023-05-10T11:26:24;7.45;;;5.50;;
51852;SDS011;37894;53.172;6.598;2023-05-10T11:28:57;7.47;;;5.45;;
51852;SDS011;37894;53.172;6.598;2023-05-10T11:31:27;8.10;;;5.78;;
51852;SDS011;37894;53.172;6.598;2023-05-10T11:34:00;7.47;;;5.55;;
51852;SDS011;37894;53.172;6.598;2023-05-10T11:36:35;8.52;;;5.45;;
51852;SDS011;37894;53.172;6.598;2023-05-10T11:39:02;7.38;;;5.40;;
51852;SDS011;37894;53.172;6.598;2023-05-10T11:41:29;11.45;;;6.63;;
51852;SDS011;37894;53.172;6.598;2023-05-10T11:43:55;10.60;;;6.55;;
51852;SDS011;37894;53.172;6.598;2023-05-10T11:46:23;11.45;;;6.88;;
51852;SDS011;37894;53.172;6.598;2023-05-10T11:48:51;20.55;;;7.63;;
51852;SDS011;37894;53.172;6.598;2023-05-10T11:51:22;11.32;;;7.40;;
51852;SDS011;37894;53.172;6.598;2023-05-10T11:53:49;10.32;;;7.93;;
51852;SDS011;37894;53.172;6.598;2023-05-10T11:56:19;12.13;;;7.47;;
51852;SDS011;37894;53.172;6.598;2023-05-10T11:58:51;12.77;;;7.82;;
51852;SDS011;37894;53.172;6.598;2023-05-10T12:01:21;11.63;;;7.45;;
51852;SDS011;37894;53.172;6.598;2023-05-10T12:03:48;9.88;;;6.90;;
51852;SDS011;37894;53.172;6.598;2023-05-10T12:06:15;10.35;;;6.43;;
51852;SDS011;37894;53.172;6.598;2023-05-10T12:08:46;11.43;;;7.18;;
51852;SDS011;37894;53.172;6.598;2023-05-10T12:11:13;12.05;;;7.40;;
51852;SDS011;37894;53.172;6.598;2023-05-10T12:13:41;9.75;;;6.68;;
51852;SDS011;37894;53.172;6.598;2023-05-10T12:16:17;9.90;;;6.80;;
51852;SDS011;37894;53.172;6.598;2023-05-10T12:18:48;11.63;;;6.65;;
51852;SDS011;37894;53.172;6.598;2023-05-10T12:21:16;10.93;;;6.70;;
51852;SDS011;37894;53.172;6.598;2023-05-10T12:23:42;11.75;;;7.30;;
51852;SDS011;37894;53.172;6.598;2023-05-10T12:26:10;10.80;;;6.88;;
51852;SDS011;37894;53.172;6.598;2023-05-10T12:28:36;11.82;;;6.95;;
51852;SDS011;37894;53.172;6.598;2023-05-10T12:31:03;10.68;;;5.85;;
51852;SDS011;37894;53.172;6.598;2023-05-10T12:33:39;10.07;;;6.60;;
51852;SDS011;37894;53.172;6.598;2023-05-10T12:36:10;11.13;;;7.03;;
51852;SDS011;37894;53.172;6.598;2023-05-10T12:38:38;11.90;;;7.18;;
51852;SDS011;37894;53.172;6.598;2023-05-10T12:41:14;11.65;;;7.50;;
51852;SDS011;37894;53.172;6.598;2023-05-10T12:43:42;13.90;;;8.13;;
51852;SDS011;37894;53.172;6.598;2023-05-10T12:46:09;11.60;;;7.80;;
51852;SDS011;37894;53.172;6.598;2023-05-10T12:48:36;11.20;;;6.95;;
51852;SDS011;37894;53.172;6.598;2023-05-10T12:51:03;12.10;;;7.80;;
51852;SDS011;37894;53.172;6.598;2023-05-10T12:53:30;13.18;;;7.53;;
51852;SDS011;37894;53.172;6.598;2023-05-10T12:55:56;11.95;;;7.28;;
51852;SDS011;37894;53.172;6.598;2023-05-10T12:58:22;14.20;;;7.55;;
51852;SDS011;37894;53.172;6.598;2023-05-10T13:00:48;12.82;;;7.38;;
51852;SDS011;37894;53.172;6.598;2023-05-10T13:03:13;12.20;;;7.80;;
51852;SDS011;37894;53.172;6.598;2023-05-10T13:05:40;10.25;;;6.63;;
51852;SDS011;37894;53.172;6.598;2023-05-10T13:08:06;12.48;;;6.78;;
51852;SDS011;37894;53.172;6.598;2023-05-10T13:10:32;14.40;;;7.22;;
51852;SDS011;37894;53.172;6.598;2023-05-10T13:12:58;10.80;;;6.55;;
51852;SDS011;37894;53.172;6.598;2023-05-10T13:15:24;11.25;;;6.88;;
51852;SDS011;37894;53.172;6.598;2023-05-10T13:17:50;11.95;;;7.00;;
51852;SDS011;37894;53.172;6.598;2023-05-10T13:20:16;13.20;;;6.93;;
51852;SDS011;37894;53.172;6.598;2023-05-10T13:22:45;13.82;;;7.63;;
51852;SDS011;37894;53.172;6.598;2023-05-10T13:25:11;14.57;;;6.55;;
51852;SDS011;37894;53.172;6.598;2023-05-10T13:27:37;9.57;;;5.85;;
51852;SDS011;37894;53.172;6.598;2023-05-10T13:30:06;10.15;;;5.65;;
51852;SDS011;37894;53.172;6.598;2023-05-10T13:32:33;10.55;;;6.15;;
51852;SDS011;37894;53.172;6.598;2023-05-10T13:34:59;8.23;;;5.13;;
51852;SDS011;37894;53.172;6.598;2023-05-10T13:37:25;10.40;;;6.43;;
51852;SDS011;37894;53.172;6.598;2023-05-10T13:39:51;9.43;;;5.40;;
51852;SDS011;37894;53.172;6.598;2023-05-10T13:42:17;10.27;;;6.28;;
51852;SDS011;37894;53.172;6.598;2023-05-10T13:44:43;10.20;;;6.20;;
51852;SDS011;37894;53.172;6.598;2023-05-10T13:47:09;9.73;;;6.35;;
51852;SDS011;37894;53.172;6.598;2023-05-10T13:49:35;9.60;;;6.20;;
51852;SDS011;37894;53.172;6.598;2023-05-10T13:52:01;12.35;;;6.85;;
51852;SDS011;37894;53.172;6.598;2023-05-10T13:54:32;10.65;;;6.95;;
51852;SDS011;37894;53.172;6.598;2023-05-10T13:56:59;10.60;;;6.88;;
51852;SDS011;37894;53.172;6.598;2023-05-10T13:59:25;9.32;;;6.07;;
51852;SDS011;37894;53.172;6.598;2023-05-10T14:01:50;8.68;;;6.00;;
51852;SDS011;37894;53.172;6.598;2023-05-10T14:04:16;11.05;;;6.72;;
51852;SDS011;37894;53.172;6.598;2023-05-10T14:06:42;10.85;;;7.03;;
51852;SDS011;37894;53.172;6.598;2023-05-10T14:09:07;11.40;;;6.90;;
51852;SDS011;37894;53.172;6.598;2023-05-10T14:11:33;9.25;;;6.13;;
51852;SDS011;37894;53.172;6.598;2023-05-10T14:13:59;10.27;;;6.63;;
51852;SDS011;37894;53.172;6.598;2023-05-10T14:16:25;11.75;;;7.70;;
51852;SDS011;37894;53.172;6.598;2023-05-10T14:18:52;11.80;;;6.38;;
51852;SDS011;37894;53.172;6.598;2023-05-10T14:21:17;9.93;;;6.60;;
51852;SDS011;37894;53.172;6.598;2023-05-10T14:23:43;10.48;;;6.65;;
51852;SDS011;37894;53.172;6.598;2023-05-10T14:26:09;15.15;;;7.60;;
51852;SDS011;37894;53.172;6.598;2023-05-10T14:28:35;16.17;;;7.57;;
51852;SDS011;37894;53.172;6.598;2023-05-10T14:31:00;14.70;;;8.57;;
51852;SDS011;37894;53.172;6.598;2023-05-10T14:33:26;10.88;;;7.55;;
51852;SDS011;37894;53.172;6.598;2023-05-10T14:35:53;13.68;;;7.85;;
51852;SDS011;37894;53.172;6.598;2023-05-10T14:38:19;11.00;;;7.40;;
51852;SDS011;37894;53.172;6.598;2023-05-10T14:40:45;11.32;;;7.13;;
51852;SDS011;37894;53.172;6.598;2023-05-10T14:43:11;12.52;;;7.65;;
51852;SDS011;37894;53.172;6.598;2023-05-10T14:45:37;13.00;;;7.55;;
51852;SDS011;37894;53.172;6.598;2023-05-10T14:48:02;12.68;;;6.78;;
51852;SDS011;37894;53.172;6.598;2023-05-10T14:50:29;12.48;;;6.95;;
51852;SDS011;37894;53.172;6.598;2023-05-10T14:52:56;11.88;;;7.10;;
51852;SDS011;37894;53.172;6.598;2023-05-10T14:55:22;13.30;;;7.80;;
51852;SDS011;37894;53.172;6.598;2023-05-10T14:57:48;11.32;;;6.68;;
51852;SDS011;37894;53.172;6.598;2023-05-10T15:00:15;18.08;;;7.93;;
51852;SDS011;37894;53.172;6.598;2023-05-10T15:02:42;12.82;;;7.25;;
51852;SDS011;37894;53.172;6.598;2023-05-10T15:05:07;20.45;;;8.80;;
51852;SDS011;37894;53.172;6.598;2023-05-10T15:07:33;15.38;;;8.50;;
51852;SDS011;37894;53.172;6.598;2023-05-10T15:09:59;14.40;;;8.20;;